Green Ice — C6SO4 — position and weather

sailwx.info

Track history (hours):
 
Tides and Currents Weather Stations Pressure Air Temp Water Temp Dewpoint Dewpoint Depression Visibility Wind Speed Wind Dir Waves Ship Positions

Green Ice

Last reported at 2015-May-03 00:32 UTC. Time now 2015-May-03 15:52 UTC.
Position N 69°46' E 019°06'.

Length 86 m; draft 6.4 m.

MMSI: 311411000.

Date/timePositionNaut miles runAvg speedWind from/ knotsBaromVisibWave heightAir tempDewpointWater temp
2015-May-03 00:32N 69°46' E 019°06'4 1.3
2015-May-02 21:33N 69°42' E 019°01'0 0.0
2015-May-02 20:06N 69°42' E 019°01'3 6.0
2015-May-02 19:33N 69°39' E 018°59'147 7.6
2015-May-02 00:04N 67°50' E 014°26'713.2
2015-May-01 23:33N 67°44' E 014°18'1312.9
2015-May-01 22:33N 67°31' E 014°22'1212.5
2015-May-01 21:34N 67°18' E 014°23'1 1.0
2015-May-01 20:33N 67°17' E 014°24'0 0.0
2015-May-01 19:33N 67°17' E 014°24'0 0.0
2015-May-01 18:33N 67°17' E 014°24'0 0.0
2015-May-01 17:33N 67°17' E 014°24'2 2.5
2015-May-01 16:33N 67°16' E 014°18'1212.3
2015-May-01 15:33N 67°07' E 013°59'1313.0
2015-May-01 14:33N 66°58' E 013°34'2812.4
2015-May-01 12:19N 66°33' E 013°03'912.0
2015-May-01 11:33N 66°24' E 012°59'1413.5
2015-May-01 10:30N 66°10' E 012°50'61 7.6
2015-May-01 02:33N 65°14' E 011°55'1313.2
2015-May-01 01:33N 65°02' E 011°43'1312.8
2015-May-01 00:33N 64°54' E 011°20'3 3.2
2015-Apr-30 23:33N 64°52' E 011°14'0 0.0
2015-Apr-30 22:33N 64°52' E 011°14'7211.8
2015-Apr-30 16:25N 63°52' E 009°41'1112.4
2015-Apr-30 15:33N 63°42' E 009°30'8 8.1
2015-Apr-30 14:32N 63°38' E 009°47'1212.9
2015-Apr-30 13:34N 63°29' E 010°05'9 8.7
2015-Apr-30 12:31N 63°27' E 010°25'0 0.0
2015-Apr-30 11:31N 63°27' E 010°25'0 0.0
2015-Apr-30 10:31N 63°27' E 010°25'0 0.0
2015-Apr-30 09:31N 63°27' E 010°25'0 0.0
2015-Apr-30 08:31N 63°27' E 010°25'0 0.0
2015-Apr-30 07:31N 63°27' E 010°25'0 0.0
2015-Apr-30 06:31N 63°27' E 010°25'0 0.0
2015-Apr-30 05:31N 63°27' E 010°25'1 1.1
2015-Apr-30 04:33N 63°28' E 010°24'1211.7
2015-Apr-30 03:34N 63°29' E 009°58'1311.5
2015-Apr-30 02:28N 63°40' E 009°45'231 7.6
2015-Apr-28 20:05N 60°33' E 004°56'1012.9
2015-Apr-28 19:21N 60°25' E 005°06'42 4.0
2015-Apr-28 09:04N 59°45' E 005°30'1811.7
2015-Apr-28 07:33N 59°29' E 005°13'10 9.5
2015-Apr-28 06:32N 59°20' E 005°19'0 0.2
2015-Apr-28 05:32N 59°20' E 005°18'0 0.0
2015-Apr-28 04:31N 59°20' E 005°18'0 0.0
2015-Apr-28 03:33N 59°20' E 005°18'0 0.0
2015-Apr-28 02:33N 59°20' E 005°18'9 8.7
2015-Apr-28 01:33N 59°12' E 005°21'1212.0
2015-Apr-28 00:33N 59°02' E 005°36'9 8.7
2015-Apr-27 23:34N 58°55' E 005°46'3 3.1
2015-Apr-27 22:33N 58°52' E 005°45'0 0.0
2015-Apr-27 21:33N 58°52' E 005°45'0 0.0
2015-Apr-27 20:33N 58°52' E 005°45'0 0.0
2015-Apr-27 19:33N 58°52' E 005°45'0 0.0
2015-Apr-27 18:33N 58°52' E 005°45'0 0.0
2015-Apr-27 17:33N 58°52' E 005°45'0 0.0
2015-Apr-27 16:33N 58°52' E 005°45'0 0.0
2015-Apr-27 15:33N 58°52' E 005°45'0 0.0
2015-Apr-27 14:33N 58°52' E 005°45'0 0.1
2015-Apr-27 13:33N 58°52' E 005°45'10 9.7
2015-Apr-27 12:33N 59°02' E 005°45'8 8.0
2015-Apr-27 11:33N 58°57' E 005°33'1312.2
2015-Apr-27 10:31N 58°45' E 005°25'1212.3
2015-Apr-27 09:33N 58°34' E 005°35'1211.9
2015-Apr-27 08:33N 58°24' E 005°49'1212.1
2015-Apr-27 07:33N 58°16' E 006°06'1212.3
2015-Apr-27 06:33N 58°08' E 006°23'112 6.1
2015-Apr-26 12:09N 58°45' E 009°44'23 2.1
2015-Apr-26 01:33N 58°57' E 010°22'1111.0
2015-Apr-26 00:33N 59°01' E 010°42'9 8.9
2015-Apr-25 23:33N 59°04' E 010°58'8 7.2
2015-Apr-25 22:31N 59°11' E 010°57'0 0.0
2015-Apr-25 21:31N 59°11' E 010°57'0 0.0
2015-Apr-25 20:31N 59°11' E 010°57'0 0.0
2015-Apr-25 19:31N 59°11' E 010°57'0 0.0
2015-Apr-25 18:31N 59°11' E 010°57'0 0.0
2015-Apr-25 17:31N 59°11' E 010°57'0 0.0
2015-Apr-25 16:31N 59°11' E 010°57'0 0.0
2015-Apr-25 15:31N 59°11' E 010°57'0 0.0
2015-Apr-25 14:33N 59°11' E 010°57'0 0.0
2015-Apr-25 13:33N 59°11' E 010°57'0 0.1
2015-Apr-25 12:33N 59°11' E 010°57'0 0.0
2015-Apr-25 11:33N 59°11' E 010°57'0 0.0
2015-Apr-25 10:33N 59°11' E 010°57'0 0.0
2015-Apr-25 09:33N 59°11' E 010°57'0 0.0
2015-Apr-25 08:33N 59°11' E 010°57'0 0.0
2015-Apr-25 07:33N 59°11' E 010°57'1 1.1
2015-Apr-25 06:33N 59°10' E 010°57'9 9.3
2015-Apr-25 05:33N 59°01' E 010°52'9 9.3
2015-Apr-25 04:33N 58°54' E 010°42'1212.5
2015-Apr-25 03:33N 58°41' E 010°44'1313.2
2015-Apr-25 02:33N 58°29' E 010°50'1313.1
2015-Apr-25 01:33N 58°16' E 010°58'1313.0
2015-Apr-25 00:33N 58°04' E 011°06'1312.7
2015-Apr-24 23:33N 57°52' E 011°13'1312.7
2015-Apr-24 22:33N 57°39' E 011°21'1312.8
2015-Apr-24 21:33N 57°27' E 011°27'1312.7
2015-Apr-24 20:33N 57°15' E 011°35'3712.4
2015-Apr-24 17:33N 56°40' E 011°57'1212.1
2015-Apr-24 16:33N 56°28' E 012°01'1211.9
2015-Apr-24 15:33N 56°17' E 012°04'1411.8
2015-Apr-24 14:25N 56°04' E 011°55'4 0.4
2015-Apr-24 05:24N 56°01' E 011°52'1011.4
2015-Apr-24 04:33N 56°07' E 012°04'1110.5
2015-Apr-24 03:33N 56°12' E 012°21'1111.1
2015-Apr-24 02:34N 56°05' E 012°36'1110.8
2015-Apr-24 01:33N 55°55' E 012°44'1211.7
2015-Apr-24 00:33N 55°44' E 012°41'10 9.8
2015-Apr-23 23:33N 55°34' E 012°42'1110.8
2015-Apr-23 22:33N 55°23' E 012°41'1010.0
2015-Apr-23 21:33N 55°16' E 012°52'1411.9
2015-Apr-23 20:23N 55°06' E 013°10'2211.4
2015-Apr-23 18:30N 54°49' E 013°33'1111.5
2015-Apr-23 17:33N 54°39' E 013°42'1211.6
2015-Apr-23 16:34N 54°29' E 013°50'1211.9
2015-Apr-23 15:33N 54°18' E 014°00'1211.7
2015-Apr-23 14:33N 54°08' E 014°09'1111.5
2015-Apr-23 13:33N 53°57' E 014°16'4 3.7
2015-Apr-23 12:33N 53°54' E 014°16'0 0.0
2015-Apr-23 11:33N 53°54' E 014°16'0 0.0
2015-Apr-23 10:33N 53°54' E 014°16'0 0.0
2015-Apr-23 09:33N 53°54' E 014°16'0 0.0
2015-Apr-23 08:33N 53°54' E 014°16'0 0.0
2015-Apr-23 07:33N 53°54' E 014°16'0 0.0
2015-Apr-23 06:33N 53°54' E 014°16'0 0.0
2015-Apr-23 05:33N 53°54' E 014°16'0 0.0
2015-Apr-23 04:33N 53°54' E 014°16'0 0.0
2015-Apr-23 03:33N 53°54' E 014°16'0 0.0
2015-Apr-23 02:33N 53°54' E 014°16'0 0.0
2015-Apr-23 01:33N 53°54' E 014°16'0 0.0
2015-Apr-23 00:33N 53°54' E 014°16'  
Track history (hours):
 
Tides and Currents Weather Stations Pressure Air Temp Water Temp Dewpoint Dewpoint Depression Visibility Wind Speed Wind Dir Waves Ship Positions

Green Ice

Last reported at 2015-May-03 00:32 UTC. Time now 2015-May-03 15:52 UTC.
Position N 69°46' E 019°06'.

Length 86 m; draft 6.4 m.

MMSI: 311411000.

Date/timePositionNaut miles runAvg speedWind from/ knotsBaromVisibWave heightAir tempDewpointWater temp
2015-May-03 00:32N 69°46' E 019°06'4 1.3
2015-May-02 21:33N 69°42' E 019°01'0 0.0
2015-May-02 20:06N 69°42' E 019°01'3 6.0
2015-May-02 19:33N 69°39' E 018°59'147 7.6
2015-May-02 00:04N 67°50' E 014°26'713.2
2015-May-01 23:33N 67°44' E 014°18'1312.9
2015-May-01 22:33N 67°31' E 014°22'1212.5
2015-May-01 21:34N 67°18' E 014°23'1 1.0
2015-May-01 20:33N 67°17' E 014°24'0 0.0
2015-May-01 19:33N 67°17' E 014°24'0 0.0
2015-May-01 18:33N 67°17' E 014°24'0 0.0
2015-May-01 17:33N 67°17' E 014°24'2 2.5
2015-May-01 16:33N 67°16' E 014°18'1212.3
2015-May-01 15:33N 67°07' E 013°59'1313.0
2015-May-01 14:33N 66°58' E 013°34'2812.4
2015-May-01 12:19N 66°33' E 013°03'912.0
2015-May-01 11:33N 66°24' E 012°59'1413.5
2015-May-01 10:30N 66°10' E 012°50'61 7.6
2015-May-01 02:33N 65°14' E 011°55'1313.2
2015-May-01 01:33N 65°02' E 011°43'1312.8
2015-May-01 00:33N 64°54' E 011°20'3 3.2
2015-Apr-30 23:33N 64°52' E 011°14'0 0.0
2015-Apr-30 22:33N 64°52' E 011°14'7211.8
2015-Apr-30 16:25N 63°52' E 009°41'1112.4
2015-Apr-30 15:33N 63°42' E 009°30'8 8.1
2015-Apr-30 14:32N 63°38' E 009°47'1212.9
2015-Apr-30 13:34N 63°29' E 010°05'9 8.7
2015-Apr-30 12:31N 63°27' E 010°25'0 0.0
2015-Apr-30 11:31N 63°27' E 010°25'0 0.0
2015-Apr-30 10:31N 63°27' E 010°25'0 0.0
2015-Apr-30 09:31N 63°27' E 010°25'0 0.0
2015-Apr-30 08:31N 63°27' E 010°25'0 0.0
2015-Apr-30 07:31N 63°27' E 010°25'0 0.0
2015-Apr-30 06:31N 63°27' E 010°25'0 0.0
2015-Apr-30 05:31N 63°27' E 010°25'1 1.1
2015-Apr-30 04:33N 63°28' E 010°24'1211.7
2015-Apr-30 03:34N 63°29' E 009°58'1311.5
2015-Apr-30 02:28N 63°40' E 009°45'231 7.6
2015-Apr-28 20:05N 60°33' E 004°56'1012.9
2015-Apr-28 19:21N 60°25' E 005°06'42 4.0
2015-Apr-28 09:04N 59°45' E 005°30'1811.7
2015-Apr-28 07:33N 59°29' E 005°13'10 9.5
2015-Apr-28 06:32N 59°20' E 005°19'0 0.2
2015-Apr-28 05:32N 59°20' E 005°18'0 0.0
2015-Apr-28 04:31N 59°20' E 005°18'0 0.0
2015-Apr-28 03:33N 59°20' E 005°18'0 0.0
2015-Apr-28 02:33N 59°20' E 005°18'9 8.7
2015-Apr-28 01:33N 59°12' E 005°21'1212.0
2015-Apr-28 00:33N 59°02' E 005°36'9 8.7
2015-Apr-27 23:34N 58°55' E 005°46'3 3.1
2015-Apr-27 22:33N 58°52' E 005°45'0 0.0
2015-Apr-27 21:33N 58°52' E 005°45'0 0.0
2015-Apr-27 20:33N 58°52' E 005°45'0 0.0
2015-Apr-27 19:33N 58°52' E 005°45'0 0.0
2015-Apr-27 18:33N 58°52' E 005°45'0 0.0
2015-Apr-27 17:33N 58°52' E 005°45'0 0.0
2015-Apr-27 16:33N 58°52' E 005°45'0 0.0
2015-Apr-27 15:33N 58°52' E 005°45'0 0.0
2015-Apr-27 14:33N 58°52' E 005°45'0 0.1
2015-Apr-27 13:33N 58°52' E 005°45'10 9.7
2015-Apr-27 12:33N 59°02' E 005°45'8 8.0
2015-Apr-27 11:33N 58°57' E 005°33'1312.2
2015-Apr-27 10:31N 58°45' E 005°25'1212.3
2015-Apr-27 09:33N 58°34' E 005°35'1211.9
2015-Apr-27 08:33N 58°24' E 005°49'1212.1
2015-Apr-27 07:33N 58°16' E 006°06'1212.3
2015-Apr-27 06:33N 58°08' E 006°23'112 6.1
2015-Apr-26 12:09N 58°45' E 009°44'23 2.1
2015-Apr-26 01:33N 58°57' E 010°22'1111.0
2015-Apr-26 00:33N 59°01' E 010°42'9 8.9
2015-Apr-25 23:33N 59°04' E 010°58'8 7.2
2015-Apr-25 22:31N 59°11' E 010°57'0 0.0
2015-Apr-25 21:31N 59°11' E 010°57'0 0.0
2015-Apr-25 20:31N 59°11' E 010°57'0 0.0
2015-Apr-25 19:31N 59°11' E 010°57'0 0.0
2015-Apr-25 18:31N 59°11' E 010°57'0 0.0
2015-Apr-25 17:31N 59°11' E 010°57'0 0.0
2015-Apr-25 16:31N 59°11' E 010°57'0 0.0
2015-Apr-25 15:31N 59°11' E 010°57'0 0.0
2015-Apr-25 14:33N 59°11' E 010°57'0 0.0
2015-Apr-25 13:33N 59°11' E 010°57'0 0.1
2015-Apr-25 12:33N 59°11' E 010°57'0 0.0
2015-Apr-25 11:33N 59°11' E 010°57'0 0.0
2015-Apr-25 10:33N 59°11' E 010°57'0 0.0
2015-Apr-25 09:33N 59°11' E 010°57'0 0.0
2015-Apr-25 08:33N 59°11' E 010°57'0 0.0
2015-Apr-25 07:33N 59°11' E 010°57'1 1.1
2015-Apr-25 06:33N 59°10' E 010°57'9 9.3
2015-Apr-25 05:33N 59°01' E 010°52'9 9.3
2015-Apr-25 04:33N 58°54' E 010°42'1212.5
2015-Apr-25 03:33N 58°41' E 010°44'1313.2
2015-Apr-25 02:33N 58°29' E 010°50'1313.1
2015-Apr-25 01:33N 58°16' E 010°58'1313.0
2015-Apr-25 00:33N 58°04' E 011°06'1312.7
2015-Apr-24 23:33N 57°52' E 011°13'1312.7
2015-Apr-24 22:33N 57°39' E 011°21'1312.8
2015-Apr-24 21:33N 57°27' E 011°27'1312.7
2015-Apr-24 20:33N 57°15' E 011°35'3712.4
2015-Apr-24 17:33N 56°40' E 011°57'1212.1
2015-Apr-24 16:33N 56°28' E 012°01'1211.9
2015-Apr-24 15:33N 56°17' E 012°04'1411.8
2015-Apr-24 14:25N 56°04' E 011°55'4 0.4
2015-Apr-24 05:24N 56°01' E 011°52'1011.4
2015-Apr-24 04:33N 56°07' E 012°04'1110.5
2015-Apr-24 03:33N 56°12' E 012°21'1111.1
2015-Apr-24 02:34N 56°05' E 012°36'1110.8
2015-Apr-24 01:33N 55°55' E 012°44'1211.7
2015-Apr-24 00:33N 55°44' E 012°41'10 9.8
2015-Apr-23 23:33N 55°34' E 012°42'1110.8
2015-Apr-23 22:33N 55°23' E 012°41'1010.0
2015-Apr-23 21:33N 55°16' E 012°52'1411.9
2015-Apr-23 20:23N 55°06' E 013°10'2211.4
2015-Apr-23 18:30N 54°49' E 013°33'1111.5
2015-Apr-23 17:33N 54°39' E 013°42'1211.6
2015-Apr-23 16:34N 54°29' E 013°50'1211.9
2015-Apr-23 15:33N 54°18' E 014°00'1211.7
2015-Apr-23 14:33N 54°08' E 014°09'1111.5
2015-Apr-23 13:33N 53°57' E 014°16'4 3.7
2015-Apr-23 12:33N 53°54' E 014°16'0 0.0
2015-Apr-23 11:33N 53°54' E 014°16'0 0.0
2015-Apr-23 10:33N 53°54' E 014°16'0 0.0
2015-Apr-23 09:33N 53°54' E 014°16'0 0.0
2015-Apr-23 08:33N 53°54' E 014°16'0 0.0
2015-Apr-23 07:33N 53°54' E 014°16'0 0.0
2015-Apr-23 06:33N 53°54' E 014°16'0 0.0
2015-Apr-23 05:33N 53°54' E 014°16'0 0.0
2015-Apr-23 04:33N 53°54' E 014°16'0 0.0
2015-Apr-23 03:33N 53°54' E 014°16'0 0.0
2015-Apr-23 02:33N 53°54' E 014°16'0 0.0
2015-Apr-23 01:33N 53°54' E 014°16'0 0.0
2015-Apr-23 00:33N 53°54' E 014°16'  

Dump ship's entire track history